createdAt,value
2017-04-27T21:25:34.767Z,56.90
2017-04-27T21:28:01.785Z,56.90
2017-04-27T21:30:28.776Z,57.00
2017-04-27T21:32:55.744Z,57.00
2017-04-27T21:35:22.746Z,57.30
2017-04-27T21:37:49.863Z,57.40
2017-04-27T21:40:16.865Z,57.30
2017-04-27T21:42:43.822Z,57.40
2017-04-27T21:45:11.071Z,57.50
2017-04-27T21:47:38.139Z,57.80
2017-04-27T21:50:05.213Z,57.70
2017-04-27T21:52:32.208Z,57.90
2017-04-27T21:54:59.229Z,57.90
2017-04-27T21:57:26.227Z,58.10
2017-04-27T21:59:53.198Z,57.80
2017-04-27T22:02:20.192Z,56.80
2017-04-27T22:04:47.167Z,56.50
2017-04-27T22:07:14.371Z,56.60
2017-04-27T22:09:41.333Z,56.40
2017-04-27T22:12:08.350Z,56.30
2017-04-27T22:14:35.335Z,56.10
2017-04-27T22:17:02.350Z,56.10
2017-04-27T22:19:29.331Z,56.10
2017-04-27T22:21:56.368Z,55.90
2017-04-27T22:24:23.412Z,55.90
2017-04-27T22:26:50.484Z,56.10
2017-04-27T22:29:17.696Z,56.30
2017-04-27T22:31:45.465Z,56.00
2017-04-27T22:34:12.862Z,56.00
2017-04-27T22:36:39.838Z,56.30
2017-04-27T22:39:06.837Z,56.30
2017-04-27T22:41:33.820Z,56.60
2017-04-27T22:44:00.844Z,57.20
2017-04-27T22:46:28.696Z,57.00
2017-04-27T22:48:55.682Z,57.00
2017-04-27T22:51:23.549Z,57.00
2017-04-27T22:53:51.291Z,56.80
2017-04-27T22:56:18.758Z,56.80
2017-04-27T22:58:46.493Z,56.70
2017-04-27T23:01:13.503Z,57.00
2017-04-27T23:03:40.562Z,56.90
2017-04-27T23:06:07.546Z,56.70
2017-04-27T23:08:34.559Z,56.50
2017-04-27T23:11:01.527Z,56.60
2017-04-27T23:13:29.275Z,57.70
2017-04-27T23:15:57.018Z,57.10
2017-04-27T23:18:24.053Z,56.60
2017-04-27T23:20:51.044Z,56.90
2017-04-27T23:23:18.052Z,57.00
2017-04-27T23:25:45.766Z,57.20
2017-04-27T23:28:12.761Z,57.30
2017-04-27T23:30:40.040Z,57.20
2017-04-27T23:33:07.775Z,57.40
2017-04-27T23:35:34.785Z,57.50
2017-04-27T23:38:02.552Z,57.80
2017-04-27T23:40:30.297Z,58.20
2017-04-27T23:42:57.273Z,57.90
2017-04-27T23:45:24.246Z,58.20
2017-04-27T23:47:51.997Z,58.40
2017-04-27T23:50:18.966Z,58.30
2017-04-27T23:52:45.950Z,58.30
2017-04-27T23:55:12.942Z,58.30
2017-04-27T23:57:39.947Z,58.20
